Time;durP1;ratioP1;P1;durP2;ratioP2;P2;SDS_P1;SDS_P2;PMS_P1;PMS_P2;Temp;Humidity;BMP_temperature;BMP_pressure;BME280_temperature;BME280_humidity;BME280_pressure;Samples;Min_cycle;Max_cycle;Signal;HPM_P1;HPM_P2
2023/01/21 00:01:07;;;;;;;22.33;12.27;;;;;;;5.76;67.41;93686.94;5050209;28;20033;-89
2023/01/21 00:03:33;;;;;;;24.52;12.55;;;;;;;5.73;67.02;93690.06;5036906;28;20034;-89
2023/01/21 00:05:58;;;;;;;22.98;11.68;;;;;;;5.46;66.72;93689.16;5019495;28;20033;-88
2023/01/21 00:08:24;;;;;;;24.83;11.82;;;;;;;5.98;66.92;93686.78;5037013;28;20034;-89
2023/01/21 00:10:50;;;;;;;21.50;11.52;;;;;;;5.97;65.05;93689.66;5052447;28;20174;-88
2023/01/21 00:13:15;;;;;;;24.90;12.90;;;;;;;5.50;66.26;93681.63;5035775;28;20037;-89
2023/01/21 00:15:41;;;;;;;26.73;12.98;;;;;;;5.19;69.00;93682.25;5035694;28;20033;-89
2023/01/21 00:18:06;;;;;;;27.90;13.23;;;;;;;5.44;69.88;93680.03;5020594;28;20453;-89
2023/01/21 00:20:32;;;;;;;26.85;13.48;;;;;;;5.61;68.71;93677.28;5039704;28;20034;-89
2023/01/21 00:22:57;;;;;;;29.73;15.38;;;;;;;5.31;71.57;93678.69;5040719;28;20126;-89
2023/01/21 00:25:23;;;;;;;29.73;15.55;;;;;;;5.46;73.07;93678.78;5039710;28;20026;-89
2023/01/21 00:27:48;;;;;;;35.20;16.45;;;;;;;5.40;73.85;93673.78;5039466;28;20051;-89
2023/01/21 00:30:14;;;;;;;33.67;16.90;;;;;;;5.34;73.03;93672.97;5039506;28;20037;-89
2023/01/21 00:32:39;;;;;;;35.00;16.33;;;;;;;5.56;73.54;93672.84;5039380;28;20037;-89
2023/01/21 00:35:22;;;;;;;34.00;17.15;;;;;;;5.96;72.29;93678.47;5023284;28;20087;-89
2023/01/21 00:37:50;;;;;;;35.30;16.67;;;;;;;5.77;71.83;93678.91;5020911;28;20029;-89
2023/01/21 00:40:16;;;;;;;34.53;16.45;;;;;;;5.60;71.52;93671.28;5020584;28;20030;-89
2023/01/21 00:42:41;;;;;;;34.90;17.10;;;;;;;5.68;69.79;93667.44;5019746;28;20041;-89
2023/01/21 00:45:07;;;;;;;35.28;16.63;;;;;;;5.51;72.70;93667.59;5019514;28;20492;-88
2023/01/21 00:47:33;;;;;;;35.35;17.75;;;;;;;5.29;73.51;93659.94;5002755;28;20030;-88
2023/01/21 00:49:58;;;;;;;31.70;16.05;;;;;;;5.34;73.10;93660.00;5019438;28;20033;-89
2023/01/21 00:52:23;;;;;;;37.33;17.65;;;;;;;5.21;73.19;93662.00;5020348;28;20030;-88
2023/01/21 00:54:49;;;;;;;33.63;17.13;;;;;;;5.50;72.69;93659.03;5003096;28;20071;-89
2023/01/21 00:57:15;;;;;;;35.67;18.13;;;;;;;5.43;72.43;93655.88;5019147;28;20095;-88
2023/01/21 00:59:40;;;;;;;36.42;17.98;;;;;;;5.73;70.93;93646.66;5002855;28;20497;-88
2023/01/21 01:02:06;;;;;;;30.50;16.65;;;;;;;5.52;71.34;93654.38;5035607;28;20415;-88
2023/01/21 01:04:31;;;;;;;34.30;17.48;;;;;;;4.80;75.47;93664.31;5035562;28;20363;-89
2023/01/21 01:06:57;;;;;;;36.13;18.50;;;;;;;5.16;77.07;93664.53;5020130;28;20037;-89
2023/01/21 01:09:22;;;;;;;36.58;18.10;;;;;;;5.66;71.64;93653.91;5020024;28;20025;-88
2023/01/21 01:11:47;;;;;;;36.28;17.95;;;;;;;5.15;74.49;93652.59;5019066;28;20026;-88
2023/01/21 01:14:15;;;;;;;36.45;18.00;;;;;;;5.49;74.48;93661.88;5018922;28;20036;-89
2023/01/21 01:16:40;;;;;;;33.17;18.05;;;;;;;5.50;73.57;93653.03;5002735;28;20394;-88
2023/01/21 01:19:06;;;;;;;34.83;18.00;;;;;;;5.49;71.64;93649.69;5018936;28;20029;-88
2023/01/21 01:21:31;;;;;;;36.42;17.92;;;;;;;5.23;72.52;93646.94;5019837;28;20037;-88
2023/01/21 01:24:00;;;;;;;37.47;18.50;;;;;;;5.51;71.13;93639.81;5002654;28;20420;-89
2023/01/21 01:26:26;;;;;;;35.63;17.42;;;;;;;5.55;71.08;93636.69;5018678;28;20494;-88
2023/01/21 01:28:52;;;;;;;36.78;16.85;;;;;;;5.30;73.29;93643.31;5018604;28;20034;-89
2023/01/21 01:31:18;;;;;;;32.70;17.40;;;;;;;5.73;70.98;93643.28;5001711;28;20036;-88
2023/01/21 01:33:44;;;;;;;34.55;17.60;;;;;;;5.41;70.16;93639.75;5018205;28;20038;-89
2023/01/21 01:36:22;;;;;;;36.75;18.33;;;;;;;5.43;71.18;93631.72;5002125;28;20100;-89
2023/01/21 01:38:48;;;;;;;34.47;17.98;;;;;;;5.18;72.26;93633.13;5002646;28;20034;-89
2023/01/21 01:41:16;;;;;;;31.83;16.60;;;;;;;5.63;69.88;93629.19;5019617;28;20037;-89
2023/01/21 01:44:03;;;;;;;34.25;16.98;;;;;;;5.73;69.75;93631.06;5019442;28;20040;-88
2023/01/21 01:46:34;;;;;;;35.35;16.17;;;;;;;5.39;70.99;93623.63;5018082;28;20029;-88
2023/01/21 01:49:07;;;;;;;33.13;16.13;;;;;;;5.42;70.55;93623.13;5018485;28;20076;-89
2023/01/21 01:52:00;;;;;;;32.03;16.33;;;;;;;5.16;74.54;93620.41;5034563;28;20346;-88
2023/01/21 01:54:42;;;;;;;31.48;15.40;;;;;;;5.18;72.76;93623.53;5038202;28;20493;-89
2023/01/21 01:57:09;;;;;;;31.77;15.77;;;;;;;5.18;70.34;93620.94;5021577;28;20025;-88
2023/01/21 01:59:35;;;;;;;27.30;14.57;;;;;;;4.63;74.94;93623.69;5021418;28;20029;-89
2023/01/21 02:02:06;;;;;;;33.58;15.43;;;;;;;5.58;69.74;93607.59;5037811;28;20086;-88
2023/01/21 02:04:41;;;;;;;32.83;15.95;;;;;;;5.63;69.34;93603.22;5037642;28;20029;-89
2023/01/21 02:07:07;;;;;;;27.27;14.57;;;;;;;4.90;71.77;93604.69;5031481;28;20025;-88
2023/01/21 02:09:33;;;;;;;33.50;15.60;;;;;;;5.39;69.94;93597.66;5035879;28;20072;-89
2023/01/21 02:12:00;;;;;;;31.17;15.13;;;;;;;5.29;69.57;93598.41;5019124;28;20029;-88
2023/01/21 02:14:26;;;;;;;26.40;14.45;;;;;;;5.39;68.17;93589.88;5043752;28;20032;-88
2023/01/21 02:17:00;;;;;;;32.13;15.25;;;;;;;5.45;66.90;93580.28;5015347;28;20096;-88
2023/01/21 02:19:32;;;;;;;28.35;14.13;;;;;;;5.45;66.53;93582.88;5032189;28;20064;-88
2023/01/21 02:22:00;;;;;;;27.50;14.10;;;;;;;5.00;68.50;93585.00;5038352;28;20029;-89
2023/01/21 02:24:28;;;;;;;31.13;14.65;;;;;;;4.89;67.40;93584.16;5037335;28;20183;-89
2023/01/21 02:27:00;;;;;;;30.13;14.05;;;;;;;5.54;65.43;93583.16;5037986;28;20035;-88
2023/01/21 02:29:41;;;;;;;33.15;15.00;;;;;;;5.41;65.89;93577.41;5038066;28;20025;-89
2023/01/21 02:32:12;;;;;;;27.48;13.95;;;;;;;5.42;65.95;93586.00;5037404;28;20044;-88
2023/01/21 02:35:00;;;;;;;24.90;13.02;;;;;;;5.16;67.23;93571.06;5038028;28;20120;-89
2023/01/21 02:37:37;;;;;;;34.15;14.98;;;;;;;5.18;69.61;93569.00;5024665;28;20033;-89
2023/01/21 02:40:12;;;;;;;29.20;14.40;;;;;;;5.13;70.48;93563.78;5018162;28;20040;-89
2023/01/21 02:42:41;;;;;;;32.08;15.95;;;;;;;4.84;69.87;93566.72;5017569;28;20038;-88
2023/01/21 02:45:34;;;;;;;32.40;15.45;;;;;;;5.50;68.53;93557.69;5018084;28;20361;-88
2023/01/21 02:48:06;;;;;;;30.83;15.70;;;;;;;4.39;73.69;93553.97;5018064;28;20351;-87
2023/01/21 02:50:42;;;;;;;34.95;16.42;;;;;;;4.77;73.18;93556.56;5017404;28;20026;-87
2023/01/21 02:53:38;;;;;;;33.78;15.88;;;;;;;4.66;73.79;93553.13;5016855;28;20458;-88
2023/01/21 02:56:07;;;;;;;33.17;16.08;;;;;;;4.81;70.49;93560.25;5016662;28;20096;-87
2023/01/21 02:58:36;;;;;;;34.85;16.95;;;;;;;4.95;71.17;93554.63;5017026;28;20065;-87
2023/01/21 03:01:23;;;;;;;38.13;18.15;;;;;;;5.02;71.28;93551.75;5033296;28;20080;-88
2023/01/21 03:03:58;;;;;;;31.83;15.88;;;;;;;5.38;68.92;93544.94;5016778;28;20029;-87
2023/01/21 03:06:33;;;;;;;40.88;17.85;;;;;;;4.86;70.69;93543.91;5017566;28;20033;-88
2023/01/21 03:09:12;;;;;;;35.50;16.35;;;;;;;5.41;68.62;93530.63;5017588;28;20021;-87
2023/01/21 03:11:40;;;;;;;33.92;16.08;;;;;;;5.20;68.33;93538.38;5016740;28;20063;-87
2023/01/21 03:17:29;;;;;;;32.58;16.25;;;;;;;5.70;66.03;93525.00;5030679;28;20036;-88
2023/01/21 03:20:10;;;;;;;35.83;16.13;;;;;;;4.69;70.48;93527.72;5016120;28;20049;-87
2023/01/21 03:22:36;;;;;;;44.83;16.40;;;;;;;4.72;69.35;93530.59;5033044;28;20057;-87
2023/01/21 03:25:03;;;;;;;32.65;15.93;;;;;;;5.06;70.37;93524.28;5032957;28;20428;-88
2023/01/21 03:27:30;;;;;;;32.83;16.20;;;;;;;5.26;69.24;93520.19;5032754;28;20030;-87
2023/01/21 03:29:59;;;;;;;31.52;15.32;;;;;;;5.18;68.30;93524.84;5032992;28;20026;-88
2023/01/21 03:32:26;;;;;;;32.42;16.00;;;;;;;5.01;67.84;93524.25;5016189;28;20156;-87
2023/01/21 03:34:53;;;;;;;35.60;15.32;;;;;;;5.31;67.02;93520.25;5016880;28;20061;-87
2023/01/21 03:37:28;;;;;;;32.85;15.13;;;;;;;5.18;65.07;93516.28;5016462;28;20029;-88
2023/01/21 03:40:18;;;;;;;28.92;14.32;;;;;;;5.28;66.19;93518.91;5017239;28;20033;-88
2023/01/21 03:42:46;;;;;;;30.65;14.35;;;;;;;4.64;68.71;93518.88;5032700;28;20029;-87
2023/01/21 03:45:12;;;;;;;28.08;14.43;;;;;;;4.69;67.60;93520.72;5016435;28;20037;-88
2023/01/21 03:47:38;;;;;;;35.33;13.73;;;;;;;4.73;66.17;93519.19;5016509;28;20030;-88
2023/01/21 03:50:15;;;;;;;26.92;13.57;;;;;;;4.19;71.89;93515.72;5032828;28;20030;-88
2023/01/21 03:52:42;;;;;;;27.02;12.35;;;;;;;4.69;68.24;93519.94;5032430;28;20030;-87
2023/01/21 03:55:09;;;;;;;26.40;13.00;;;;;;;4.86;67.33;93517.19;5032880;28;20343;-88
2023/01/21 03:57:35;;;;;;;28.98;12.82;;;;;;;5.12;65.01;93515.47;5016045;28;20033;-88
2023/01/21 04:00:00;;;;;;;24.52;12.93;;;;;;;4.74;66.44;93509.59;5016308;28;20026;-88
2023/01/21 04:02:26;;;;;;;25.15;12.95;;;;;;;5.12;65.79;93506.91;5032311;28;20033;-88
2023/01/21 04:04:52;;;;;;;24.65;12.70;;;;;;;5.10;64.12;93507.16;5016217;28;20125;-88
2023/01/21 04:07:17;;;;;;;28.88;13.80;;;;;;;4.40;68.67;93508.09;5017459;28;20183;-88
2023/01/21 04:09:43;;;;;;;24.58;12.65;;;;;;;4.01;69.57;93514.25;5015977;28;20048;-87
2023/01/21 04:12:09;;;;;;;27.13;12.90;;;;;;;4.61;67.67;93516.78;5032514;28;20030;-88
2023/01/21 04:14:34;;;;;;;25.88;12.27;;;;;;;4.50;67.76;93509.97;5017166;28;20240;-88
2023/01/21 04:17:00;;;;;;;26.27;11.93;;;;;;;4.71;66.02;93503.09;5017032;28;20316;-88
2023/01/21 04:19:25;;;;;;;27.30;12.30;;;;;;;4.61;66.53;93509.00;5032556;28;20034;-88
2023/01/21 04:21:50;;;;;;;22.73;12.07;;;;;;;4.77;64.76;93509.09;5017074;28;20057;-88
2023/01/21 04:24:16;;;;;;;26.20;13.05;;;;;;;4.83;65.36;93497.69;5032473;28;20025;-87
2023/01/21 04:26:41;;;;;;;24.92;12.15;;;;;;;4.86;64.38;93497.19;5032015;28;20034;-88
2023/01/21 04:29:07;;;;;;;22.88;11.30;;;;;;;4.55;64.30;93504.03;5015755;28;20330;-88
2023/01/21 04:31:35;;;;;;;25.77;12.40;;;;;;;4.07;67.76;93496.94;5016350;28;20427;-88
2023/01/21 04:34:02;;;;;;;25.55;12.55;;;;;;;3.98;68.47;93491.44;5032572;28;20041;-88
2023/01/21 04:36:28;;;;;;;25.85;12.35;;;;;;;4.08;67.94;93493.31;5016872;28;20034;-87
2023/01/21 04:38:53;;;;;;;27.60;13.15;;;;;;;4.13;68.24;93506.34;5031734;28;20064;-87
2023/01/21 04:41:19;;;;;;;25.48;12.82;;;;;;;4.03;68.49;93490.69;5032127;28;20026;-87
2023/01/21 04:43:44;;;;;;;29.42;12.95;;;;;;;4.29;68.58;93499.44;5016733;28;20040;-87
2023/01/21 04:46:10;;;;;;;25.35;12.75;;;;;;;3.89;67.91;93500.72;5015666;28;20030;-87
2023/01/21 04:48:35;;;;;;;27.63;13.07;;;;;;;4.31;67.79;93500.00;5033588;28;20069;-87
2023/01/21 04:51:01;;;;;;;28.65;13.23;;;;;;;4.37;67.75;93506.78;5036532;28;20327;-87
2023/01/21 04:53:26;;;;;;;27.27;12.85;;;;;;;4.44;68.03;93511.75;5023947;28;20037;-87
2023/01/21 04:55:52;;;;;;;25.10;12.27;;;;;;;4.66;66.93;93509.03;5031890;28;20034;-87
2023/01/21 04:58:19;;;;;;;29.80;13.77;;;;;;;5.10;64.17;93501.97;5048808;28;20423;-87
2023/01/21 05:00:44;;;;;;;28.23;12.65;;;;;;;4.37;68.08;93506.78;5036187;28;20038;-87
2023/01/21 05:03:10;;;;;;;25.13;12.43;;;;;;;4.10;69.06;93515.38;5036323;28;20160;-87
2023/01/21 05:05:35;;;;;;;26.40;13.02;;;;;;;4.49;66.14;93518.78;5037161;28;20166;-87
2023/01/21 05:08:00;;;;;;;25.23;13.15;;;;;;;4.71;65.96;93515.25;5055071;28;20467;-87
2023/01/21 05:10:26;;;;;;;28.85;13.35;;;;;;;4.22;66.58;93510.03;5055294;28;20064;-86
2023/01/21 05:12:51;;;;;;;30.90;13.40;;;;;;;4.20;69.34;93506.13;5038376;28;20179;-87
2023/01/21 05:15:17;;;;;;;29.60;13.13;;;;;;;4.32;67.25;93516.31;5039571;28;20446;-87
2023/01/21 05:17:42;;;;;;;30.85;13.65;;;;;;;3.80;69.22;93523.66;5054878;28;20423;-87
2023/01/21 05:20:09;;;;;;;27.50;13.40;;;;;;;4.07;71.33;93522.88;5038548;28;20338;-87
2023/01/21 05:22:34;;;;;;;29.73;13.23;;;;;;;4.38;67.60;93510.91;5039445;28;20112;-87
2023/01/21 05:25:06;;;;;;;27.90;13.98;;;;;;;4.59;67.56;93507.69;5054909;28;20115;-87
2023/01/21 05:27:32;;;;;;;29.33;14.65;;;;;;;3.92;68.59;93511.34;5038377;28;20033;-87
2023/01/21 05:29:57;;;;;;;30.45;15.00;;;;;;;4.16;68.02;93510.22;5039359;28;20077;-88
2023/01/21 05:32:23;;;;;;;29.25;13.57;;;;;;;4.02;70.51;93505.47;5054899;28;20040;-88
2023/01/21 05:34:51;;;;;;;27.00;13.18;;;;;;;4.41;68.54;93506.25;5038060;28;20030;-88
2023/01/21 05:37:17;;;;;;;31.17;14.70;;;;;;;4.28;68.51;93505.66;5021837;28;20037;-88
2023/01/21 05:39:43;;;;;;;27.40;14.60;;;;;;;3.54;70.09;93511.25;5038297;28;20386;-88
2023/01/21 05:42:08;;;;;;;26.38;13.82;;;;;;;4.22;68.70;93515.22;5039343;28;20083;-89
2023/01/21 05:44:38;;;;;;;30.05;13.95;;;;;;;4.43;66.72;93511.97;5037847;28;20336;-87
2023/01/21 05:47:03;;;;;;;28.52;14.00;;;;;;;4.08;67.05;93520.03;5021606;28;20024;-87
2023/01/21 05:49:29;;;;;;;32.88;14.35;;;;;;;3.99;68.44;93515.56;5021698;28;20017;-87
2023/01/21 05:51:54;;;;;;;27.65;13.98;;;;;;;4.80;64.56;93514.53;5021646;28;20092;-88
2023/01/21 05:54:20;;;;;;;29.70;14.00;;;;;;;4.16;65.45;93518.00;5037704;28;20091;-87
2023/01/21 05:56:45;;;;;;;31.73;13.90;;;;;;;4.56;64.07;93519.34;5038755;28;20060;-87
2023/01/21 05:59:10;;;;;;;28.15;14.13;;;;;;;4.48;64.53;93514.63;5021406;28;20040;-87
2023/01/21 06:01:36;;;;;;;25.15;13.88;;;;;;;4.32;64.01;93514.53;5037720;28;20033;-88
2023/01/21 06:04:01;;;;;;;25.55;13.05;;;;;;;4.63;62.75;93525.09;5038911;28;20112;-88
2023/01/21 06:06:27;;;;;;;26.27;12.65;;;;;;;4.10;63.38;93517.22;5037882;28;20044;-87
2023/01/21 06:08:52;;;;;;;27.33;13.27;;;;;;;4.70;62.85;93521.50;5037545;28;20459;-88
2023/01/21 06:11:18;;;;;;;24.85;12.52;;;;;;;3.90;63.81;93523.00;5037485;28;20029;-88
2023/01/21 06:13:43;;;;;;;28.45;13.43;;;;;;;4.48;60.95;93525.78;5037552;28;20026;-89
2023/01/21 06:16:09;;;;;;;27.58;12.25;;;;;;;4.61;61.09;93521.97;5037385;28;20340;-89
2023/01/21 06:18:39;;;;;;;25.75;12.00;;;;;;;4.34;59.46;93516.84;5038406;28;20397;-89
2023/01/21 06:21:05;;;;;;;23.77;12.30;;;;;;;4.01;61.79;93529.81;5037690;28;20119;-89
2023/01/21 06:23:30;;;;;;;28.17;12.85;;;;;;;4.17;60.76;93530.72;5037945;28;20407;-88
2023/01/21 06:25:59;;;;;;;22.33;11.18;;;;;;;4.37;59.94;93534.50;5037444;28;20068;-89
2023/01/21 06:28:25;;;;;;;25.85;11.98;;;;;;;4.74;58.60;93530.34;5038634;28;20036;-88
2023/01/21 06:30:50;;;;;;;22.83;10.98;;;;;;;4.37;59.26;93531.91;5038737;28;20085;-89
2023/01/21 06:33:16;;;;;;;24.80;11.50;;;;;;;4.42;59.25;93539.75;5027452;28;20029;-89
2023/01/21 06:35:41;;;;;;;25.13;12.35;;;;;;;4.10;62.23;93537.94;5031383;28;20091;-89
2023/01/21 06:38:07;;;;;;;23.88;11.60;;;;;;;4.76;58.50;93539.44;5017421;28;20057;-89
2023/01/21 06:40:32;;;;;;;23.25;11.45;;;;;;;4.42;59.08;93538.94;5017751;28;20076;-89
2023/01/21 06:42:57;;;;;;;21.98;11.15;;;;;;;4.70;58.60;93540.44;5017767;28;20030;-88
2023/01/21 06:45:23;;;;;;;27.75;12.60;;;;;;;4.04;61.11;93542.31;5017620;28;20029;-88
2023/01/21 06:47:48;;;;;;;23.50;11.35;;;;;;;4.43;60.06;93545.69;5033751;28;20495;-89
2023/01/21 06:50:18;;;;;;;21.75;10.88;;;;;;;4.26;57.14;93538.06;5018358;28;20037;-88
2023/01/21 06:52:45;;;;;;;16.80;8.73;;;;;;;4.71;57.55;93549.00;5018493;28;20102;-88
2023/01/21 06:55:17;;;;;;;21.08;10.20;;;;;;;4.51;58.44;93547.84;5017343;28;20347;-88
2023/01/21 06:57:43;;;;;;;18.33;9.30;;;;;;;4.26;56.54;93553.63;5017373;28;20032;-89
2023/01/21 07:00:10;;;;;;;19.70;10.05;;;;;;;4.95;55.71;93547.59;5017546;28;20026;-89
2023/01/21 07:02:35;;;;;;;20.30;9.88;;;;;;;4.41;57.03;93545.16;5017302;28;20124;-88
2023/01/21 07:05:01;;;;;;;17.50;9.70;;;;;;;4.61;56.37;93544.53;5000690;28;20061;-89
2023/01/21 07:07:27;;;;;;;17.75;9.55;;;;;;;4.04;56.13;93555.28;5000910;28;20120;-89
2023/01/21 07:09:52;;;;;;;19.05;9.18;;;;;;;3.58;58.79;93555.59;5000611;28;20104;-89
2023/01/21 07:12:18;;;;;;;21.38;10.23;;;;;;;4.56;55.61;93554.88;5001236;28;20025;-89
2023/01/21 07:14:43;;;;;;;18.13;9.10;;;;;;;4.49;56.22;93555.09;5017252;28;20022;-89
2023/01/21 07:17:08;;;;;;;20.67;9.63;;;;;;;4.37;56.28;93558.63;5000732;28;20025;-89
2023/01/21 07:19:34;;;;;;;19.90;9.75;;;;;;;4.76;55.26;93559.44;5033225;28;20025;-88
2023/01/21 07:21:59;;;;;;;23.23;10.40;;;;;;;3.93;56.64;93556.19;5036606;28;20032;-89
2023/01/21 07:24:25;;;;;;;19.85;9.75;;;;;;;4.69;55.50;93564.84;5036623;28;20565;-90
2023/01/21 07:26:50;;;;;;;21.05;10.23;;;;;;;4.70;56.31;93561.22;5036274;28;20021;-90
2023/01/21 07:29:15;;;;;;;16.77;8.82;;;;;;;4.15;56.13;93563.13;5036147;28;20489;-90
2023/01/21 07:31:41;;;;;;;26.05;10.43;;;;;;;4.61;56.07;93557.50;5020069;28;20029;-90
2023/01/21 07:34:06;;;;;;;21.73;9.75;;;;;;;4.57;57.38;93566.81;5036366;28;20029;-90
2023/01/21 07:36:32;;;;;;;21.77;10.23;;;;;;;4.72;56.25;93568.72;5036390;28;20028;-89
2023/01/21 07:38:58;;;;;;;22.92;9.48;;;;;;;5.09;53.79;93570.50;5036156;28;20048;-88
2023/01/21 07:41:23;;;;;;;24.52;11.02;;;;;;;4.22;57.45;93568.88;5020063;28;20033;-88
2023/01/21 07:43:49;;;;;;;23.77;10.05;;;;;;;4.80;55.74;93576.06;5036402;28;20056;-87
2023/01/21 07:46:19;;;;;;;24.05;10.48;;;;;;;5.18;53.90;93578.59;5019315;28;20025;-87
2023/01/21 07:48:49;;;;;;;20.02;9.20;;;;;;;5.42;53.21;93573.78;5019912;28;20032;-88
2023/01/21 07:51:15;;;;;;;22.77;10.55;;;;;;;4.91;54.84;93579.50;5035898;28;20060;-87
2023/01/21 07:53:41;;;;;;;20.95;9.73;;;;;;;5.16;52.88;93580.66;5035920;28;20466;-86
2023/01/21 07:56:09;;;;;;;21.23;10.02;;;;;;;5.07;54.45;93580.38;5019333;28;20025;-87
2023/01/21 07:58:34;;;;;;;20.63;10.55;;;;;;;4.50;54.02;93582.59;5019579;28;20032;-87
2023/01/21 08:01:03;;;;;;;22.83;9.55;;;;;;;4.55;56.34;93584.47;5026299;28;20030;-88
2023/01/21 08:03:28;;;;;;;22.42;10.57;;;;;;;4.66;57.28;93575.69;5015967;28;20109;-87
2023/01/21 08:05:54;;;;;;;20.08;9.77;;;;;;;4.70;53.71;93584.56;5015923;28;20117;-87
2023/01/21 08:08:19;;;;;;;22.23;10.45;;;;;;;4.36;57.96;93583.00;5015831;28;20089;-87
2023/01/21 08:10:52;;;;;;;18.92;9.65;;;;;;;4.97;53.63;93586.28;5000008;28;20022;-87
2023/01/21 08:13:18;;;;;;;20.02;10.07;;;;;;;5.20;54.85;93590.31;4999628;28;20029;-87
2023/01/21 08:15:43;;;;;;;24.52;10.07;;;;;;;4.72;55.84;93592.09;5015788;28;20420;-87
2023/01/21 08:18:09;;;;;;;21.85;10.50;;;;;;;4.79;55.91;93596.03;5016070;28;20059;-87
2023/01/21 08:20:34;;;;;;;18.67;10.18;;;;;;;4.01;56.15;93592.03;5015930;28;20033;-87
2023/01/21 08:23:00;;;;;;;21.50;10.10;;;;;;;4.15;57.98;93594.22;5015797;28;20436;-87
2023/01/21 08:25:25;;;;;;;20.77;10.35;;;;;;;5.01;55.44;93604.72;5015814;28;20037;-87
2023/01/21 08:27:50;;;;;;;21.88;10.35;;;;;;;5.04;54.18;93599.06;5032483;28;20037;-88
2023/01/21 08:30:16;;;;;;;21.13;10.15;;;;;;;5.27;54.87;93599.69;5015738;28;20032;-87
2023/01/21 08:32:42;;;;;;;22.33;10.43;;;;;;;4.81;55.61;93596.59;5015693;28;20040;-87
2023/01/21 08:35:08;;;;;;;22.52;10.00;;;;;;;4.77;56.41;93603.28;5015676;28;20030;-87
2023/01/21 08:37:34;;;;;;;21.02;9.93;;;;;;;5.38;55.12;93604.69;5032139;28;20080;-88
2023/01/21 08:39:59;;;;;;;18.17;9.32;;;;;;;5.45;53.34;93607.06;5034699;28;20033;-88
2023/01/21 08:42:25;;;;;;;20.67;9.85;;;;;;;5.62;53.78;93604.25;5037018;28;20140;-88
2023/01/21 08:44:56;;;;;;;19.40;8.88;;;;;;;5.75;50.99;93613.41;5022263;28;20021;-87
2023/01/21 08:47:22;;;;;;;19.40;8.32;;;;;;;5.32;51.19;93612.72;5040500;28;20030;-88
2023/01/21 08:49:47;;;;;;;19.23;9.13;;;;;;;4.98;54.47;93621.59;5039196;28;20032;-87
2023/01/21 08:52:13;;;;;;;18.08;8.55;;;;;;;5.26;51.78;93613.69;5039079;28;20021;-88
2023/01/21 08:54:40;;;;;;;17.88;8.98;;;;;;;4.91;54.41;93621.03;5039207;28;20025;-87
2023/01/21 08:57:05;;;;;;;14.73;6.97;;;;;;;4.83;51.18;93627.47;5040111;28;20148;-88
2023/01/21 08:59:31;;;;;;;14.18;6.78;;;;;;;5.15;51.78;93629.22;5038795;28;20466;-88
2023/01/21 09:01:56;;;;;;;19.67;7.97;;;;;;;5.52;52.04;93625.78;5038805;28;20030;-87
2023/01/21 09:04:33;;;;;;;17.75;8.07;;;;;;;5.81;52.49;93619.41;5022464;28;20021;-88
2023/01/21 09:06:58;;;;;;;15.85;7.40;;;;;;;5.02;52.13;93630.44;5038655;28;20079;-88
2023/01/21 09:09:24;;;;;;;13.32;7.18;;;;;;;5.21;51.56;93635.22;5038871;28;20021;-87
2023/01/21 09:11:51;;;;;;;14.73;7.22;;;;;;;5.90;50.30;93630.84;5038708;28;20032;-87
2023/01/21 09:14:16;;;;;;;14.13;7.13;;;;;;;5.65;49.82;93623.75;5022491;28;20045;-86
2023/01/21 09:16:42;;;;;;;15.68;6.43;;;;;;;4.98;50.53;93629.38;5038166;28;20044;-87
2023/01/21 09:19:07;;;;;;;15.50;6.78;;;;;;;5.22;51.04;93632.38;5038332;28;20386;-87
2023/01/21 09:21:36;;;;;;;16.08;6.40;;;;;;;4.23;51.49;93627.50;5038687;28;20021;-87
2023/01/21 09:24:02;;;;;;;11.00;6.05;;;;;;;4.83;49.91;93640.44;5022198;28;20061;-87
2023/01/21 09:26:27;;;;;;;12.32;6.30;;;;;;;5.30;48.25;93632.94;5038221;28;20056;-87
2023/01/21 09:28:58;;;;;;;15.95;6.40;;;;;;;4.83;49.40;93639.66;5038287;28;20025;-87
2023/01/21 09:31:25;;;;;;;15.65;6.28;;;;;;;4.98;49.37;93632.00;5038333;28;20029;-87
2023/01/21 09:33:56;;;;;;;14.25;6.88;;;;;;;4.91;50.60;93634.81;5038075;28;20036;-87
2023/01/21 09:36:23;;;;;;;14.75;6.50;;;;;;;5.55;49.45;93640.09;5018235;28;20132;-87
2023/01/21 09:38:49;;;;;;;15.25;6.25;;;;;;;5.15;49.71;93636.25;5034724;28;20335;-87
2023/01/21 09:41:21;;;;;;;13.23;6.35;;;;;;;6.06;47.63;93636.13;5018505;28;20026;-87
2023/01/21 09:43:52;;;;;;;10.00;5.30;;;;;;;6.42;46.72;93638.81;5018108;28;20333;-87
2023/01/21 09:46:29;;;;;;;11.80;6.43;;;;;;;6.88;46.04;93630.22;5018226;28;20049;-87
2023/01/21 09:48:55;;;;;;;13.88;5.90;;;;;;;4.85;49.65;93635.00;5002077;28;20025;-87
2023/01/21 09:51:44;;;;;;;11.75;6.43;;;;;;;6.01;49.74;93631.69;5017358;28;20394;-87
2023/01/21 09:54:17;;;;;;;8.98;5.15;;;;;;;5.25;51.21;93633.72;5001899;28;20028;-87
2023/01/21 09:57:08;;;;;;;11.52;6.00;;;;;;;5.97;47.89;93635.06;5001747;28;20034;-87
2023/01/21 09:59:43;;;;;;;13.82;5.70;;;;;;;5.34;46.35;93634.00;5018774;28;20033;-87
2023/01/21 10:02:19;;;;;;;11.43;5.68;;;;;;;7.38;43.93;93629.63;5018987;28;20061;-87
2023/01/21 10:04:51;;;;;;;9.98;5.63;;;;;;;7.58;44.44;93635.81;5001423;28;20026;-87
2023/01/21 10:07:44;;;;;;;10.75;5.13;;;;;;;7.97;41.70;93629.94;5001289;28;20423;-87
2023/01/21 10:10:25;;;;;;;14.63;6.10;;;;;;;7.36;45.47;93627.28;5001359;28;20132;-87
2023/01/21 10:13:05;;;;;;;8.60;5.00;;;;;;;7.90;44.33;93627.63;5017751;28;20506;-88
2023/01/21 10:15:43;;;;;;;10.00;5.40;;;;;;;7.34;42.89;93620.78;5018574;28;20026;-87
2023/01/21 10:18:18;;;;;;;9.68;5.70;;;;;;;6.92;45.31;93631.28;5001251;28;20029;-87
2023/01/21 10:20:50;;;;;;;11.77;5.47;;;;;;;5.59;46.77;93614.38;5017485;28;20037;-87
2023/01/21 10:23:42;;;;;;;12.43;5.57;;;;;;;6.08;48.41;93621.03;5018632;28;20026;-87
2023/01/21 10:26:10;;;;;;;13.90;5.68;;;;;;;6.31;46.80;93621.63;5017280;28;20018;-87
2023/01/21 10:28:56;;;;;;;11.77;5.50;;;;;;;5.71;47.21;93608.97;5017526;28;20112;-79
2023/01/21 10:31:21;;;;;;;11.82;5.68;;;;;;;6.16;47.23;93619.75;5017011;28;20053;-79
2023/01/21 10:33:47;;;;;;;12.90;5.75;;;;;;;6.50;46.44;93619.31;5017974;28;20034;-79
2023/01/21 10:36:53;;;;;;;11.07;5.68;;;;;;;6.31;46.71;93612.00;5018147;28;20559;-79
2023/01/21 10:39:30;;;;;;;7.80;4.20;;;;;;;6.93;42.99;93612.00;5017621;28;20356;-79
2023/01/21 10:41:59;;;;;;;7.95;4.57;;;;;;;6.98;43.79;93619.03;5000874;28;20428;-80
2023/01/21 10:44:30;;;;;;;9.70;4.78;;;;;;;7.04;43.11;93609.38;5016892;28;20034;-79
2023/01/21 10:47:04;;;;;;;7.25;4.35;;;;;;;7.44;43.33;93610.31;5016870;28;20028;-79
2023/01/21 10:49:51;;;;;;;10.85;4.40;;;;;;;7.00;42.57;93605.72;5016846;28;20022;-79
2023/01/21 10:52:29;;;;;;;10.73;5.00;;;;;;;6.20;47.28;93605.22;5017767;28;20160;-79
2023/01/21 10:55:04;;;;;;;9.80;5.35;;;;;;;6.33;45.22;93609.91;5017786;28;20110;-79
2023/01/21 10:57:53;;;;;;;14.40;5.28;;;;;;;6.76;47.28;93606.28;5000602;28;20455;-79
2023/01/21 11:00:26;;;;;;;9.82;4.90;;;;;;;6.61;44.60;93605.25;5016415;28;20025;-79
2023/01/21 11:02:55;;;;;;;8.43;5.18;;;;;;;7.79;43.81;93594.81;5045521;28;20029;-79
2023/01/21 11:05:23;;;;;;;12.32;4.97;;;;;;;7.99;43.80;93593.91;5020064;28;20060;-79
2023/01/21 11:07:49;;;;;;;12.10;4.03;;;;;;;6.65;46.58;93582.84;5019768;28;20038;-79
2023/01/21 11:10:19;;;;;;;9.07;4.53;;;;;;;6.74;45.63;93590.91;5016328;28;20339;-79
2023/01/21 11:12:45;;;;;;;10.07;5.03;;;;;;;7.42;46.20;93596.00;5035854;28;20056;-80
2023/01/21 11:15:15;;;;;;;11.52;5.30;;;;;;;8.23;43.78;93587.25;5016208;28;20435;-79
2023/01/21 11:17:44;;;;;;;10.15;4.70;;;;;;;7.70;46.23;93583.38;5013277;28;20320;-79
2023/01/21 11:20:35;;;;;;;10.30;4.82;;;;;;;8.22;44.83;93591.72;5033038;28;20033;-79
2023/01/21 11:23:04;;;;;;;11.48;5.25;;;;;;;7.52;42.75;93584.75;5019806;28;20036;-79
2023/01/21 11:25:35;;;;;;;8.10;4.25;;;;;;;8.03;44.62;93587.13;5019548;28;20033;-79
2023/01/21 11:28:01;;;;;;;8.52;4.47;;;;;;;7.73;45.15;93585.44;5019512;28;20112;-79
2023/01/21 11:30:34;;;;;;;7.22;3.83;;;;;;;8.02;44.11;93590.00;5019689;28;20029;-79
2023/01/21 11:33:32;;;;;;;8.05;4.45;;;;;;;8.70;43.51;93588.53;5035963;28;20049;-79
2023/01/21 11:36:12;;;;;;;10.25;4.55;;;;;;;8.45;41.76;93584.22;5013837;28;20455;-79
2023/01/21 11:38:37;;;;;;;7.88;4.32;;;;;;;8.02;39.77;93582.16;5035859;28;20018;-79
2023/01/21 11:41:10;;;;;;;8.48;4.28;;;;;;;8.08;43.02;93581.09;5035839;28;20116;-79